sensor_id;sensor_type;location;lat;lon;timestamp;pressure;altitude;pressure_sealevel;temperature;humidity
71966;BME280;59836;52.132;5.442;2022-11-25T20:46:31;102395.72;;;5.87;94.26
71966;BME280;59836;52.132;5.442;2022-11-25T20:49:00;102406.50;;;5.87;93.81
71966;BME280;59836;52.132;5.442;2022-11-25T20:51:27;102406.88;;;5.84;94.20
71966;BME280;59836;52.132;5.442;2022-11-25T20:53:55;102407.72;;;5.85;93.81
71966;BME280;59836;52.132;5.442;2022-11-25T20:56:24;102411.25;;;5.85;94.25
71966;BME280;59836;52.132;5.442;2022-11-25T20:58:51;102412.72;;;5.88;94.19
71966;BME280;59836;52.132;5.442;2022-11-25T21:01:17;102415.41;;;5.88;93.88
71966;BME280;59836;52.132;5.442;2022-11-25T21:03:45;102425.16;;;5.89;93.85
71966;BME280;59836;52.132;5.442;2022-11-25T21:06:17;102423.50;;;5.88;94.00
71966;BME280;59836;52.132;5.442;2022-11-25T21:08:45;102435.06;;;5.88;93.95
71966;BME280;59836;52.132;5.442;2022-11-25T21:11:13;102435.06;;;5.88;93.96
71966;BME280;59836;52.132;5.442;2022-11-25T21:13:39;102435.94;;;5.89;93.90
71966;BME280;59836;52.132;5.442;2022-11-25T21:16:06;102436.97;;;5.88;93.70
71966;BME280;59836;52.132;5.442;2022-11-25T21:18:32;102444.19;;;5.87;93.49
71966;BME280;59836;52.132;5.442;2022-11-25T21:20:59;102440.47;;;5.88;93.57
71966;BME280;59836;52.132;5.442;2022-11-25T21:23:34;102448.53;;;5.88;93.91
71966;BME280;59836;52.132;5.442;2022-11-25T21:26:16;102453.28;;;5.86;93.74
71966;BME280;59836;52.132;5.442;2022-11-25T21:28:44;102464.47;;;5.83;93.56
71966;BME280;59836;52.132;5.442;2022-11-25T21:31:14;102461.97;;;5.82;93.85
71966;BME280;59836;52.132;5.442;2022-11-25T21:33:43;102472.75;;;5.82;93.74
71966;BME280;59836;52.132;5.442;2022-11-25T21:36:22;102470.91;;;5.82;93.87
71966;BME280;59836;52.132;5.442;2022-11-25T21:39:00;102483.94;;;5.85;93.84
71966;BME280;59836;52.132;5.442;2022-11-25T21:41:27;102481.06;;;5.87;93.78
71966;BME280;59836;52.132;5.442;2022-11-25T21:43:53;102491.84;;;5.87;93.66
71966;BME280;59836;52.132;5.442;2022-11-25T21:46:21;102499.06;;;5.86;93.80
71966;BME280;59836;52.132;5.442;2022-11-25T21:48:51;102501.75;;;5.86;94.11
71966;BME280;59836;52.132;5.442;2022-11-25T21:51:18;102496.38;;;5.86;94.28
71966;BME280;59836;52.132;5.442;2022-11-25T21:53:50;102501.59;;;5.88;94.06
71966;BME280;59836;52.132;5.442;2022-11-25T21:56:26;102499.28;;;5.85;93.87
71966;BME280;59836;52.132;5.442;2022-11-25T21:58:54;102505.47;;;5.85;94.01
71966;BME280;59836;52.132;5.442;2022-11-25T22:01:21;102502.59;;;5.87;93.54
71966;BME280;59836;52.132;5.442;2022-11-25T22:03:48;102511.72;;;5.86;93.50
71966;BME280;59836;52.132;5.442;2022-11-25T22:06:21;102511.72;;;5.86;93.61
71966;BME280;59836;52.132;5.442;2022-11-25T22:08:48;102514.59;;;5.84;93.57
71966;BME280;59836;52.132;5.442;2022-11-25T22:11:19;102521.84;;;5.84;93.39
71966;BME280;59836;52.132;5.442;2022-11-25T22:13:47;102515.63;;;5.83;93.38
71966;BME280;59836;52.132;5.442;2022-11-25T22:16:16;102517.88;;;5.80;93.87
71966;BME280;59836;52.132;5.442;2022-11-25T22:18:43;102519.75;;;5.79;93.46
71966;BME280;59836;52.132;5.442;2022-11-25T22:21:12;102520.78;;;5.78;93.01
71966;BME280;59836;52.132;5.442;2022-11-25T22:23:39;102516.44;;;5.77;93.10
71966;BME280;59836;52.132;5.442;2022-11-25T22:26:10;102524.91;;;5.74;92.86
71966;BME280;59836;52.132;5.442;2022-11-25T22:28:39;102524.44;;;5.70;93.19
71966;BME280;59836;52.132;5.442;2022-11-25T22:31:12;102525.66;;;5.68;92.96
71966;BME280;59836;52.132;5.442;2022-11-25T22:33:40;102525.66;;;5.68;93.36
71966;BME280;59836;52.132;5.442;2022-11-25T22:36:21;102527.72;;;5.66;93.09
71966;BME280;59836;52.132;5.442;2022-11-25T22:38:51;102534.94;;;5.65;93.44
71966;BME280;59836;52.132;5.442;2022-11-25T22:41:17;102531.44;;;5.65;92.97
71966;BME280;59836;52.132;5.442;2022-11-25T22:43:48;102538.50;;;5.66;93.23
71966;BME280;59836;52.132;5.442;2022-11-25T22:46:22;102541.38;;;5.64;93.32
71966;BME280;59836;52.132;5.442;2022-11-25T22:48:50;102542.22;;;5.65;93.81
71966;BME280;59836;52.132;5.442;2022-11-25T22:51:20;102542.22;;;5.65;93.65
71966;BME280;59836;52.132;5.442;2022-11-25T22:53:57;102545.94;;;5.64;93.88
71966;BME280;59836;52.132;5.442;2022-11-25T22:56:24;102556.69;;;5.64;93.70
71966;BME280;59836;52.132;5.442;2022-11-25T22:58:53;102558.34;;;5.65;93.54
71966;BME280;59836;52.132;5.442;2022-11-25T23:01:32;102566.63;;;5.63;93.11
71966;BME280;59836;52.132;5.442;2022-11-25T23:03:58;102564.13;;;5.61;93.54
71966;BME280;59836;52.132;5.442;2022-11-25T23:06:25;102567.63;;;5.62;93.55
71966;BME280;59836;52.132;5.442;2022-11-25T23:08:52;102562.47;;;5.60;93.30
71966;BME280;59836;52.132;5.442;2022-11-25T23:11:19;102563.28;;;5.61;93.06
71966;BME280;59836;52.132;5.442;2022-11-25T23:13:46;102564.13;;;5.61;93.70
71966;BME280;59836;52.132;5.442;2022-11-25T23:16:14;102569.50;;;5.61;93.24
71966;BME280;59836;52.132;5.442;2022-11-25T23:18:45;102576.09;;;5.59;93.47
71966;BME280;59836;52.132;5.442;2022-11-25T23:21:17;102580.03;;;5.56;93.19
71966;BME280;59836;52.132;5.442;2022-11-25T23:23:45;102585.41;;;5.56;93.47
71966;BME280;59836;52.132;5.442;2022-11-25T23:26:15;102593.47;;;5.56;93.52
71966;BME280;59836;52.132;5.442;2022-11-25T23:28:44;102590.59;;;5.58;93.07
71966;BME280;59836;52.132;5.442;2022-11-25T23:31:13;102599.50;;;5.58;93.01
71966;BME280;59836;52.132;5.442;2022-11-25T23:33:43;102605.91;;;5.57;92.96
71966;BME280;59836;52.132;5.442;2022-11-25T23:36:17;102613.34;;;5.55;93.54
71966;BME280;59836;52.132;5.442;2022-11-25T23:38:53;102611.69;;;5.54;93.49
71966;BME280;59836;52.132;5.442;2022-11-25T23:41:23;102613.72;;;5.52;93.38
71966;BME280;59836;52.132;5.442;2022-11-25T23:44:01;102614.53;;;5.53;93.01
71966;BME280;59836;52.132;5.442;2022-11-25T23:46:32;102615.41;;;5.53;93.52
71966;BME280;59836;52.132;5.442;2022-11-25T23:49:32;102616.41;;;5.52;92.89
71966;BME280;59836;52.132;5.442;2022-11-25T23:52:02;102620.13;;;5.51;93.06
71966;BME280;59836;52.132;5.442;2022-11-25T23:54:42;102621.16;;;5.50;93.41
71966;BME280;59836;52.132;5.442;2022-11-25T23:57:12;102629.22;;;5.50;93.48
71966;BME280;59836;52.132;5.442;2022-11-25T23:59:40;102623.22;;;5.48;92.75
